KCID/CID METAR and TAF weather

Enter ICAO airport designator
Station Type Date Time Source
KCID METAR 2021/07/24 20:52 UTC NOAA

KCID 242052Z 31010KT 10SM SCT035 32/23 A2989 RMK AO2 SLP113 T03170228 56003


Station Type Date Time Source
KCID Decoded METAR 2021/07/24 20:52 UTC NOAA

CEDAR RAPIDS AIRPORT, IA, United States (KCID) 41-53N 91-43W
Jul 24, 2021 - 04:52 PM EDT / 2021.07.24 2052 UTC
Wind: from the NW (310 degrees) at 12 MPH (10 KT):0
Visibility: 10 mile(s):0
Sky conditions: partly cloudy
Temperature: 89.1 F (31.7 C)
Heat index: 97.0 F (36.1 C):1
Dew Point: 73.0 F (22.8 C)
Relative Humidity: 59%
Pressure (altimeter): 29.89 in. Hg (1012 hPa)
Pressure tendency: 0.01 inches (0.3 hPa) lower than three hours ago
ob: KCID 242052Z 31010KT 10SM SCT035 32/23 A2989 RMK AO2 SLP113 T03170228 56003
cycle: 21

Station Type Date Time Source
KCID TAF 2021/07/24 21:33 UTC NOAA

TAF
AMD KCID 242030Z 2421/2518 30010KT P6SM SCT040
FM250200 33005KT P6SM SCT200

Example: see airport list